Portada
METAR-TAF:

METAR-TAF

Aeropuertos :

Murcia, España

Base Aérea de Alcantarilla

latitud: 37-57N, longitud: 001-14W, altitud: 75 m

Observación

El informe se hizo hace 3 horas y 50 minutos, a las 18:00 UTC
Viento 9 kt del este
Temperatura 24°C
Humedad 57%
Presión 1019 hPa
Visibilidad 10 km o más
sin nubes por debajo de 1500 m y sin presencia de cumulonimbus.

METAR: LERI 231800Z 08009KT CAVOK 24/15 Q1019 NOSIG

Hora: 23:50 (21:50 UTC)

Pronóstico

El informe se hizo hace 7 horas y 50 minutos, a las 14:00 UTC
Pronóstico válido del 23 a las 15 UTC al 23 a las 24 UTC
Viento 7 kt del este-noreste
Visibilidad 10 km o más
Nubes dispersas a una altura de 4000 ft

TAF: LERI 231400Z 2315/2324 07007KT 9999 SCT040

Observaciones y pronósticos meteorológicos de más de 4000 aeropuertos (mensajes METAR y TAF).

Los puntos amarillos y rojos representan las estaciones disponibles.

Ponga el ratón en el punto deseado para ver el nombre de la estación.

Haga clic para ver las observaciones y los pronósticos meteorológicos.

Para cambiar el mapa : haga clic en los botones verdes con una cruz de color negro para hacer un zoom, en el botón verde con un guión para alejar o en las flechas verdes para mapas adyacentes.


METAR-TAF: